Time;durP1;ratioP1;P1;durP2;ratioP2;P2;SDS_P1;SDS_P2;PMS_P1;PMS_P2;Temp;Humidity;BMP_temperature;BMP_pressure;BME280_temperature;BME280_humidity;BME280_pressure;Samples;Min_cycle;Max_cycle;Signal;HPM_P1;HPM_P2
2022/09/23 00:02:52;;;;;;;;;;;12.50;99.90;;;;;;8400925;28;19951;-79
2022/09/23 00:06:54;;;;;;;;;;;12.40;99.90;;;;;;8407772;28;19920;-79
2022/09/23 00:10:56;;;;;;;;;;;12.40;99.90;;;;;;8401740;28;19942;-79
2022/09/23 00:14:58;;;;;;;;;;;12.40;99.90;;;;;;8394515;28;19924;-79
2022/09/23 00:19:00;;;;;;;;;;;12.30;99.90;;;;;;8399313;28;20291;-80
2022/09/23 00:23:02;;;;;;;;;;;12.30;99.90;;;;;;8401041;28;19921;-79
2022/09/23 00:27:04;;;;;;;;;;;12.40;99.90;;;;;;8395643;28;19986;-80
2022/09/23 00:31:07;;;;;;;;;;;12.40;99.90;;;;;;8401761;28;20298;-80
2022/09/23 00:35:09;;;;;;;;;;;12.40;99.90;;;;;;8425133;28;20367;-80
2022/09/23 00:39:11;;;;;;;;;;;12.40;99.90;;;;;;8398743;28;19920;-80
2022/09/23 00:43:13;;;;;;;;;;;12.40;99.90;;;;;;8396184;28;19928;-80
2022/09/23 00:47:15;;;;;;;;;;;12.40;99.90;;;;;;8405453;28;19924;-80
2022/09/23 00:51:19;;;;;;;;;;;12.40;99.90;;;;;;8418516;28;19927;-80
2022/09/23 00:55:36;;;;;;;;;;;12.40;99.90;;;;;;8426971;28;19930;-79
2022/09/23 00:59:38;;;;;;;;;;;12.40;99.90;;;;;;8397833;28;19939;-80
2022/09/23 01:03:43;;;;;;;;;;;12.40;99.90;;;;;;8393349;28;19927;-79
2022/09/23 01:07:45;;;;;;;;;;;12.40;99.90;;;;;;8414970;27;20416;-79
2022/09/23 01:11:56;;;;;;;;;;;12.30;99.90;;;;;;8407567;28;19929;-79
2022/09/23 01:16:06;;;;;;;;;;;12.30;99.90;;;;;;8417572;28;20291;-79
2022/09/23 01:20:27;;;;;;;;;;;12.20;99.90;;;;;;8409260;28;19920;-80
2022/09/23 01:24:28;;;;;;;;;;;12.10;99.90;;;;;;8394338;28;19920;-80
2022/09/23 01:28:36;;;;;;;;;;;12.00;99.90;;;;;;8404076;28;20375;-80
2022/09/23 01:32:43;;;;;;;;;;;12.00;99.90;;;;;;8408348;28;19931;-79
2022/09/23 01:36:48;;;;;;;;;;;11.90;99.90;;;;;;8427566;28;20010;-79
2022/09/23 01:40:59;;;;;;;;;;;11.90;99.90;;;;;;8401081;28;20523;-79
2022/09/23 01:45:06;;;;;;;;;;;11.90;99.90;;;;;;8421189;28;19928;-80
2022/09/23 01:49:15;;;;;;;;;;;11.80;99.90;;;;;;8422181;28;19928;-80
2022/09/23 01:53:19;;;;;;;;;;;11.80;99.90;;;;;;8429036;27;19934;-79
2022/09/23 01:57:31;;;;;;;;;;;11.80;99.90;;;;;;8417980;28;20544;-79
2022/09/23 02:01:37;;;;;;;;;;;11.80;99.90;;;;;;8406551;28;20375;-79
2022/09/23 02:05:48;;;;;;;;;;;11.70;99.90;;;;;;8407613;28;19927;-80
2022/09/23 02:09:55;;;;;;;;;;;11.70;99.90;;;;;;8395252;28;19924;-79
2022/09/23 02:13:57;;;;;;;;;;;11.60;99.90;;;;;;8406981;28;19934;-80
2022/09/23 02:18:04;;;;;;;;;;;11.60;99.90;;;;;;8397815;28;19923;-80
2022/09/23 02:22:07;;;;;;;;;;;11.60;99.90;;;;;;8410133;28;20593;-79
2022/09/23 02:26:18;;;;;;;;;;;11.60;99.90;;;;;;8405920;28;19928;-79
2022/09/23 02:30:21;;;;;;;;;;;11.60;99.90;;;;;;8401118;28;19932;-80
2022/09/23 02:34:29;;;;;;;;;;;11.60;99.90;;;;;;8407051;28;19931;-80
2022/09/23 02:38:39;;;;;;;;;;;11.60;99.90;;;;;;8404822;28;20338;-79
2022/09/23 02:42:47;;;;;;;;;;;11.60;99.90;;;;;;8406250;28;19951;-79
2022/09/23 02:46:50;;;;;;;;;;;11.60;99.90;;;;;;8399589;28;19936;-79
2022/09/23 02:50:53;;;;;;;;;;;11.60;99.90;;;;;;8419835;28;20371;-79
2022/09/23 02:54:55;;;;;;;;;;;11.60;99.90;;;;;;8419054;28;20018;-80
2022/09/23 02:58:57;;;;;;;;;;;11.60;99.90;;;;;;8412614;28;19934;-79
2022/09/23 03:03:11;;;;;;;;;;;11.60;99.90;;;;;;8409377;28;19926;-80
2022/09/23 03:07:12;;;;;;;;;;;11.50;99.90;;;;;;8403758;28;19931;-79
2022/09/23 03:11:15;;;;;;;;;;;11.40;99.90;;;;;;8403341;28;20337;-79
2022/09/23 03:15:24;;;;;;;;;;;11.40;99.90;;;;;;8419604;28;19926;-80
2022/09/23 03:19:35;;;;;;;;;;;11.30;99.90;;;;;;8407445;28;19935;-80
2022/09/23 03:23:38;;;;;;;;;;;11.30;99.90;;;;;;8428083;28;20378;-79
2022/09/23 03:27:41;;;;;;;;;;;11.30;99.90;;;;;;8410589;28;20549;-80
2022/09/23 03:31:43;;;;;;;;;;;11.30;99.90;;;;;;8416913;28;20363;-79
2022/09/23 03:40:19;;;;;;;;;;;11.20;99.90;;;;;;8417756;28;20357;-79
2022/09/23 03:44:21;;;;;;;;;;;11.20;99.90;;;;;;8422038;28;19924;-79
2022/09/23 03:48:23;;;;;;;;;;;11.20;99.90;;;;;;8409184;28;20069;-79
2022/09/23 03:52:25;;;;;;;;;;;11.20;99.90;;;;;;8416582;28;19957;-80
2022/09/23 03:56:26;;;;;;;;;;;11.10;99.90;;;;;;8412381;28;19919;-79
2022/09/23 04:00:28;;;;;;;;;;;11.10;99.90;;;;;;8419575;28;19965;-79
2022/09/23 04:04:32;;;;;;;;;;;11.10;99.90;;;;;;8413225;28;19926;-80
2022/09/23 04:08:33;;;;;;;;;;;11.10;99.90;;;;;;8412344;28;19920;-80
2022/09/23 04:12:35;;;;;;;;;;;11.10;99.90;;;;;;8428257;28;20015;-79
2022/09/23 04:16:37;;;;;;;;;;;11.10;99.90;;;;;;8420873;28;19946;-79
2022/09/23 04:20:39;;;;;;;;;;;11.10;99.90;;;;;;8421974;28;20291;-79
2022/09/23 04:24:40;;;;;;;;;;;11.10;99.90;;;;;;8429887;28;19944;-80
2022/09/23 04:28:42;;;;;;;;;;;11.10;99.90;;;;;;8427831;28;19930;-80
2022/09/23 04:32:44;;;;;;;;;;;11.10;99.90;;;;;;8470284;27;19930;-80
2022/09/23 04:36:46;;;;;;;;;;;11.10;99.90;;;;;;8415812;28;19924;-80
2022/09/23 04:40:48;;;;;;;;;;;11.10;99.90;;;;;;8413563;28;19928;-79
2022/09/23 04:44:50;;;;;;;;;;;11.10;99.90;;;;;;8435167;28;19994;-80
2022/09/23 04:48:51;;;;;;;;;;;11.10;99.90;;;;;;8448069;27;20406;-80
2022/09/23 04:52:54;;;;;;;;;;;11.20;99.90;;;;;;8427927;28;19934;-80
2022/09/23 04:56:55;;;;;;;;;;;11.20;99.90;;;;;;8423800;28;19955;-80
2022/09/23 05:00:57;;;;;;;;;;;11.20;99.90;;;;;;8424448;28;20395;-79
2022/09/23 05:05:03;;;;;;;;;;;11.20;99.90;;;;;;8437281;28;19923;-80
2022/09/23 05:19:02;;;;;;;;;;;11.30;99.90;;;;;;8390460;28;19931;-79
2022/09/23 05:23:03;;;;;;;;;;;11.30;99.90;;;;;;8391807;28;19921;-79
2022/09/23 05:27:06;;;;;;;;;;;11.30;99.90;;;;;;8375069;28;19932;-80
2022/09/23 05:31:13;;;;;;;;;;;11.30;99.90;;;;;;8389224;28;19921;-80
2022/09/23 05:35:20;;;;;;;;;;;11.30;99.90;;;;;;8391612;28;19927;-80
2022/09/23 05:39:21;;;;;;;;;;;11.30;99.90;;;;;;8385118;28;19920;-80
2022/09/23 05:43:23;;;;;;;;;;;11.30;99.90;;;;;;8392973;28;20389;-80
2022/09/23 05:47:25;;;;;;;;;;;11.30;99.90;;;;;;8402608;28;20030;-80
2022/09/23 05:51:27;;;;;;;;;;;11.30;99.90;;;;;;8402131;28;19926;-80
2022/09/23 05:55:31;;;;;;;;;;;11.30;99.90;;;;;;8399833;28;20018;-80
2022/09/23 05:59:33;;;;;;;;;;;11.30;99.90;;;;;;8406597;28;19920;-80
2022/09/23 06:03:35;;;;;;;;;;;11.30;99.90;;;;;;8402454;28;20011;-80
2022/09/23 06:07:37;;;;;;;;;;;11.30;99.90;;;;;;8389028;28;19927;-80
2022/09/23 06:11:39;;;;;;;;;;;11.40;99.90;;;;;;8407838;28;19927;-79
2022/09/23 06:15:43;;;;;;;;;;;11.40;99.90;;;;;;8416672;28;19982;-80
2022/09/23 06:19:45;;;;;;;;;;;11.40;99.90;;;;;;8427448;28;19928;-80
2022/09/23 06:23:46;;;;;;;;;;;11.40;99.90;;;;;;8426861;28;20045;-80
2022/09/23 06:27:53;;;;;;;;;;;11.40;99.90;;;;;;8431331;28;19952;-79
2022/09/23 06:31:55;;;;;;;;;;;11.50;99.90;;;;;;8452132;28;20386;-80
2022/09/23 06:35:58;;;;;;;;;;;11.50;99.90;;;;;;8416069;28;19920;-80
2022/09/23 06:40:00;;;;;;;;;;;11.50;99.90;;;;;;8425302;28;20282;-80
2022/09/23 06:44:02;;;;;;;;;;;11.50;99.90;;;;;;8433152;28;19931;-80
2022/09/23 06:48:07;;;;;;;;;;;11.60;99.90;;;;;;8437962;28;19919;-79
2022/09/23 06:52:09;;;;;;;;;;;11.60;99.90;;;;;;8430065;28;19954;-80
2022/09/23 06:56:10;;;;;;;;;;;11.60;99.90;;;;;;8446789;28;19930;-80
2022/09/23 07:00:12;;;;;;;;;;;11.70;99.90;;;;;;8437061;28;19926;-79
2022/09/23 07:04:14;;;;;;;;;;;11.70;99.90;;;;;;8438607;28;19920;-79
2022/09/23 07:08:16;;;;;;;;;;;11.80;99.90;;;;;;8405750;28;20014;-80
2022/09/23 07:12:17;;;;;;;;;;;11.90;99.90;;;;;;8399271;28;19945;-79
2022/09/23 07:16:20;;;;;;;;;;;12.00;99.90;;;;;;8403202;28;19966;-80
2022/09/23 07:20:21;;;;;;;;;;;12.10;99.90;;;;;;8401498;28;20260;-80
2022/09/23 07:24:23;;;;;;;;;;;12.10;99.90;;;;;;8403025;28;19928;-80
2022/09/23 07:28:27;;;;;;;;;;;12.20;99.90;;;;;;8400951;28;20295;-79
2022/09/23 07:32:29;;;;;;;;;;;12.30;99.90;;;;;;8406047;28;19995;-80
2022/09/23 07:36:42;;;;;;;;;;;12.40;99.90;;;;;;8395047;28;20003;-79
2022/09/23 07:40:44;;;;;;;;;;;12.50;99.90;;;;;;8433968;27;20346;-80
2022/09/23 07:44:46;;;;;;;;;;;12.50;99.90;;;;;;8397985;28;19924;-80
2022/09/23 07:48:48;;;;;;;;;;;12.60;99.90;;;;;;8402624;28;20375;-79
2022/09/23 07:52:51;;;;;;;;;;;12.70;99.90;;;;;;8399823;28;19926;-79
2022/09/23 07:56:53;;;;;;;;;;;12.80;99.90;;;;;;8394663;28;19927;-79
2022/09/23 08:00:59;;;;;;;;;;;12.90;99.90;;;;;;8402367;28;20551;-80
2022/09/23 08:05:02;;;;;;;;;;;12.90;99.90;;;;;;8399692;28;19924;-80
2022/09/23 08:09:03;;;;;;;;;;;13.00;99.90;;;;;;8400429;28;19981;-80
2022/09/23 08:13:05;;;;;;;;;;;13.10;99.90;;;;;;8397792;28;19920;-80
2022/09/23 08:17:07;;;;;;;;;;;13.30;99.90;;;;;;8412333;28;19920;-79
2022/09/23 08:21:08;;;;;;;;;;;13.40;99.90;;;;;;8395812;28;20351;-79
2022/09/23 08:25:10;;;;;;;;;;;13.50;99.90;;;;;;8390308;28;20294;-80
2022/09/23 08:29:12;;;;;;;;;;;13.60;99.90;;;;;;8402027;28;20580;-80
2022/09/23 08:33:14;;;;;;;;;;;13.70;99.90;;;;;;8392185;28;20011;-80
2022/09/23 08:37:20;;;;;;;;;;;13.80;99.90;;;;;;8398362;28;19924;-79
2022/09/23 08:41:38;;;;;;;;;;;13.80;99.90;;;;;;8397810;28;19920;-80
2022/09/23 08:45:40;;;;;;;;;;;13.90;99.90;;;;;;8397941;28;20475;-79
2022/09/23 08:49:58;;;;;;;;;;;13.90;99.90;;;;;;8401333;28;19920;-79
2022/09/23 08:53:59;;;;;;;;;;;13.90;99.90;;;;;;8426016;27;19938;-79
2022/09/23 08:58:20;;;;;;;;;;;13.90;99.90;;;;;;8397589;28;19924;-79
2022/09/23 09:02:26;;;;;;;;;;;14.00;99.90;;;;;;8399499;28;19928;-80
2022/09/23 09:06:36;;;;;;;;;;;14.00;99.90;;;;;;8395568;28;19920;-80
2022/09/23 09:10:54;;;;;;;;;;;14.10;99.90;;;;;;8398121;28;19921;-80
2022/09/23 09:15:06;;;;;;;;;;;14.20;99.90;;;;;;8395735;28;20295;-80
2022/09/23 09:19:15;;;;;;;;;;;14.20;99.90;;;;;;8394698;28;19931;-80
2022/09/23 09:23:18;;;;;;;;;;;14.30;99.90;;;;;;8433254;27;20278;-80
2022/09/23 09:27:20;;;;;;;;;;;14.30;99.90;;;;;;8394203;28;20356;-80
2022/09/23 09:31:38;;;;;;;;;;;14.40;99.90;;;;;;8394816;28;20291;-80
2022/09/23 09:35:40;;;;;;;;;;;14.40;99.90;;;;;;8405394;28;19920;-79
2022/09/23 09:39:41;;;;;;;;;;;14.50;99.90;;;;;;8398600;28;20282;-80
2022/09/23 09:43:47;;;;;;;;;;;14.60;99.90;;;;;;8393618;28;19921;-80
2022/09/23 09:48:09;;;;;;;;;;;14.60;99.90;;;;;;8399753;28;19921;-80
2022/09/23 09:52:13;;;;;;;;;;;14.70;99.90;;;;;;8392519;28;19920;-79
2022/09/23 09:56:17;;;;;;;;;;;14.70;99.90;;;;;;8398565;28;19928;-80
2022/09/23 10:00:25;;;;;;;;;;;14.80;99.90;;;;;;8396406;28;19924;-79
2022/09/23 10:04:33;;;;;;;;;;;14.90;99.90;;;;;;8390704;28;20025;-78
2022/09/23 10:08:35;;;;;;;;;;;15.00;99.90;;;;;;8397965;28;19920;-79
2022/09/23 10:12:45;;;;;;;;;;;15.10;99.90;;;;;;8398709;28;20286;-78
2022/09/23 10:17:00;;;;;;;;;;;15.20;99.90;;;;;;8396128;28;20674;-78
2022/09/23 10:21:07;;;;;;;;;;;15.20;99.90;;;;;;8398061;28;19928;-78
2022/09/23 10:25:15;;;;;;;;;;;15.40;99.90;;;;;;8392729;28;19924;-79
2022/09/23 10:29:27;;;;;;;;;;;15.50;99.90;;;;;;8396777;28;19924;-78
2022/09/23 10:33:30;;;;;;;;;;;15.60;99.90;;;;;;8398774;28;19920;-78
2022/09/23 10:37:34;;;;;;;;;;;15.70;99.90;;;;;;8404466;28;20279;-80
2022/09/23 10:50:40;;;;;;;;;;;15.80;99.90;;;;;;8406042;28;19924;-79
2022/09/23 10:54:55;;;;;;;;;;;15.80;99.90;;;;;;8402773;28;19924;-79
2022/09/23 10:59:17;;;;;;;;;;;15.80;99.90;;;;;;8395746;28;19920;-79
2022/09/23 11:03:33;;;;;;;;;;;15.90;99.90;;;;;;8397554;28;19967;-79
2022/09/23 11:07:39;;;;;;;;;;;15.90;99.90;;;;;;8399790;28;20256;-79
2022/09/23 11:12:00;;;;;;;;;;;16.00;99.90;;;;;;8399243;28;19925;-79
2022/09/23 11:16:05;;;;;;;;;;;16.00;99.90;;;;;;8409094;28;19931;-80
2022/09/23 11:20:21;;;;;;;;;;;16.10;99.90;;;;;;8400976;28;19928;-79
2022/09/23 11:24:23;;;;;;;;;;;16.10;99.90;;;;;;8393849;28;20014;-78
2022/09/23 11:28:28;;;;;;;;;;;16.10;99.90;;;;;;8399548;28;19927;-80
2022/09/23 11:32:37;;;;;;;;;;;16.20;99.90;;;;;;8399983;28;20007;-79
2022/09/23 11:36:41;;;;;;;;;;;16.30;99.90;;;;;;8400715;28;19924;-79
2022/09/23 11:40:44;;;;;;;;;;;16.40;99.90;;;;;;8399149;28;19924;-78
2022/09/23 11:44:50;;;;;;;;;;;16.40;99.90;;;;;;8438558;27;20231;-78
2022/09/23 11:49:11;;;;;;;;;;;16.60;99.90;;;;;;8401366;28;19934;-78
2022/09/23 11:53:34;;;;;;;;;;;16.80;99.90;;;;;;8401154;28;19920;-79
2022/09/23 11:57:36;;;;;;;;;;;16.90;99.90;;;;;;8401488;28;19920;-78
2022/09/23 12:01:50;;;;;;;;;;;17.00;99.90;;;;;;8399077;28;19920;-77
2022/09/23 12:06:11;;;;;;;;;;;17.00;99.90;;;;;;8402984;28;19924;-78
2022/09/23 12:10:13;;;;;;;;;;;17.00;99.90;;;;;;8396602;28;20007;-78
2022/09/23 12:14:20;;;;;;;;;;;17.00;99.90;;;;;;8399456;28;19926;-78
2022/09/23 12:18:22;;;;;;;;;;;17.00;99.90;;;;;;8399493;28;20290;-78
2022/09/23 12:22:31;;;;;;;;;;;17.00;99.90;;;;;;8401039;28;19928;-78
2022/09/23 12:26:33;;;;;;;;;;;17.00;99.90;;;;;;8397709;28;19943;-78
2022/09/23 12:30:35;;;;;;;;;;;16.90;99.90;;;;;;8395675;28;20345;-79
2022/09/23 12:34:40;;;;;;;;;;;16.90;99.90;;;;;;8392471;28;19954;-79
2022/09/23 12:38:48;;;;;;;;;;;17.00;99.90;;;;;;8397785;28;19924;-79
2022/09/23 12:42:49;;;;;;;;;;;17.00;99.90;;;;;;8400599;28;19920;-80
2022/09/23 12:47:11;;;;;;;;;;;17.10;99.90;;;;;;8395674;28;19989;-79
2022/09/23 12:51:15;;;;;;;;;;;17.10;99.90;;;;;;8406935;28;19954;-78
2022/09/23 12:55:20;;;;;;;;;;;17.20;99.90;;;;;;8403211;28;19937;-79
2022/09/23 12:59:27;;;;;;;;;;;17.30;99.90;;;;;;8396086;28;19924;-78
2022/09/23 13:07:49;;;;;;;;;;;17.50;99.90;;;;;;8397346;28;20030;-79
2022/09/23 13:11:52;;;;;;;8.15;5.00;;;17.60;99.90;;;;;;8397557;28;19943;-79
2022/09/23 13:15:54;;;;;;;8.50;4.40;;;17.60;99.90;;;;;;8395275;28;20526;-78
2022/09/23 13:19:58;;;;;;;;;;;17.60;99.90;;;;;;8396315;28;20048;-78
2022/09/23 13:24:11;;;;;;;;;;;17.60;99.90;;;;;;8396733;28;20050;-78
2022/09/23 13:28:39;;;;;;;;;;;17.60;99.90;;;;;;8400169;28;20078;-78
2022/09/23 13:32:45;;;;;;;;;;;17.60;99.90;;;;;;8394391;28;20029;-79
2022/09/23 13:36:47;;;;;;;;;;;17.60;99.90;;;;;;8393302;28;19928;-78
2022/09/23 13:40:49;;;;;;;;;;;17.60;99.90;;;;;;8394793;28;19931;-78
2022/09/23 13:44:56;;;;;;;;;;;17.60;99.90;;;;;;8394171;28;20495;-79
2022/09/23 13:48:58;;;;;;;;;;;17.60;99.90;;;;;;8396107;28;19970;-79
2022/09/23 13:53:00;;;;;;;;;;;17.60;99.90;;;;;;8405804;28;19926;-78
2022/09/23 13:57:02;;;;;;;;;;;17.60;99.90;;;;;;8399728;28;20016;-78
2022/09/23 14:01:07;;;;;;;;;;;17.60;99.90;;;;;;8397491;28;19954;-78
2022/09/23 14:05:11;;;;;;;;;;;17.60;99.90;;;;;;8391113;28;19971;-77
2022/09/23 14:09:14;;;;;;;;;;;17.70;99.90;;;;;;8393706;28;20372;-79
2022/09/23 14:13:20;;;;;;;;;;;17.70;99.90;;;;;;8402813;28;19920;-78
2022/09/23 14:17:26;;;;;;;;;;;17.70;99.90;;;;;;8405298;28;19931;-79
2022/09/23 14:21:35;;;;;;;;;;;17.70;99.90;;;;;;8411088;28;19930;-78
2022/09/23 14:25:37;;;;;;;;;;;17.70;99.90;;;;;;8402373;28;19920;-79
2022/09/23 14:29:41;;;;;;;;;;;17.70;99.90;;;;;;8399570;28;19928;-79
2022/09/23 14:33:43;;;;;;;;;;;17.70;99.90;;;;;;8398997;28;20391;-78
2022/09/23 14:42:06;;;;;;;;;;;17.70;99.90;;;;;;8400125;28;19931;-78
2022/09/23 14:46:15;;;;;;;;;;;17.70;99.90;;;;;;8395158;28;19925;-78
2022/09/23 14:54:49;;;;;;;;;;;17.60;99.90;;;;;;8398430;28;19920;-79
2022/09/23 14:58:51;;;;;;;;;;;17.60;99.90;;;;;;8399520;28;19924;-78
2022/09/23 15:03:00;;;;;;;;;;;17.60;99.90;;;;;;8397256;28;19920;-79
2022/09/23 15:07:14;;;;;;;;;;;17.60;99.90;;;;;;8396427;28;20059;-78
2022/09/23 15:11:16;;;;;;;;;;;17.60;99.90;;;;;;8398010;28;20383;-79
2022/09/23 15:15:20;;;;;;;;;;;17.60;99.90;;;;;;8394942;28;19928;-78
2022/09/23 15:19:22;;;;;;;;;;;17.60;99.90;;;;;;8404084;28;19924;-78
2022/09/23 15:23:32;;;;;;;;;;;17.60;99.90;;;;;;8398641;28;20350;-78
2022/09/23 15:27:34;;;;;;;;;;;17.50;99.90;;;;;;8400165;28;20030;-79
2022/09/23 15:31:36;;;;;;;;;;;17.50;99.90;;;;;;8389205;28;19936;-78
2022/09/23 15:35:45;;;;;;;;;;;17.50;99.90;;;;;;8432094;27;20260;-79
2022/09/23 15:39:47;;;;;;;;;;;17.50;99.90;;;;;;8402437;28;20003;-79
2022/09/23 15:43:55;;;;;;;;;;;17.50;99.90;;;;;;8398301;28;19924;-78
2022/09/23 15:47:58;;;;;;;;;;;17.50;99.90;;;;;;8393311;28;19924;-79
2022/09/23 15:52:00;;;;;;;;;;;17.50;99.90;;;;;;8400763;28;20363;-78
2022/09/23 15:56:03;;;;;;;;;;;17.50;99.90;;;;;;8399534;28;20298;-79
2022/09/23 16:00:05;;;;;;;;;;;17.50;99.90;;;;;;8432386;27;19928;-79
2022/09/23 16:04:08;;;;;;;;;;;17.40;99.90;;;;;;8396810;28;19927;-78
2022/09/23 16:08:10;;;;;;;;;;;17.40;99.90;;;;;;8429188;27;20381;-79
2022/09/23 16:12:12;;;;;;;;;;;17.40;99.90;;;;;;8413975;28;19928;-79
2022/09/23 16:16:13;;;;;;;;;;;17.30;99.90;;;;;;8400813;28;19947;-79
2022/09/23 16:20:16;;;;;;;;;;;17.30;99.90;;;;;;8396740;28;19927;-78
2022/09/23 16:24:18;;;;;;;;;;;17.20;99.90;;;;;;8398573;28;19924;-79
2022/09/23 16:28:22;;;;;;;;;;;17.20;99.90;;;;;;8399534;28;19974;-79
2022/09/23 16:32:24;;;;;;;;;;;17.10;99.90;;;;;;8397441;28;24119;-79
2022/09/23 16:36:27;;;;;;;;;;;17.10;99.90;;;;;;8404908;28;19934;-79
2022/09/23 16:40:31;;;;;;;;;;;17.00;99.90;;;;;;8402648;28;19924;-79
2022/09/23 16:44:33;;;;;;;;;;;17.00;99.90;;;;;;8403529;28;19969;-79
2022/09/23 16:48:39;;;;;;;;;;;16.90;99.90;;;;;;8402556;28;19924;-79
2022/09/23 16:52:41;;;;;;;;;;;16.80;99.90;;;;;;8427493;27;20015;-78
2022/09/23 16:56:43;;;;;;;;;;;16.70;99.90;;;;;;8399620;28;20287;-79
2022/09/23 17:05:05;;;;;;;;;;;16.60;99.90;;;;;;8403411;28;20252;-79
2022/09/23 17:09:08;;;;;;;;;;;16.60;99.90;;;;;;8405568;28;19920;-79
2022/09/23 17:13:10;;;;;;;;;;;16.60;99.90;;;;;;8393220;28;20300;-79
2022/09/23 17:17:11;;;;;;;;;;;16.60;99.90;;;;;;8392102;28;19926;-79
2022/09/23 17:21:13;;;;;;;;;;;16.60;99.90;;;;;;8409599;28;19921;-79
2022/09/23 17:25:15;;;;;;;;;;;16.60;99.90;;;;;;8403975;28;19920;-79
2022/09/23 17:29:17;;;;;;;;;;;16.60;99.90;;;;;;8386212;28;19928;-79
2022/09/23 17:33:21;;;;;;;;;;;16.60;99.90;;;;;;8388148;28;19934;-79
2022/09/23 17:37:22;;;;;;;;;;;16.50;99.90;;;;;;8395658;28;19920;-79
2022/09/23 17:41:24;;;;;;;;;;;16.50;99.90;;;;;;8395464;28;19924;-79
2022/09/23 17:45:26;;;;;;;;;;;16.50;99.90;;;;;;8392090;28;20342;-79
2022/09/23 17:49:33;;;;;;;;;;;16.50;99.90;;;;;;8400882;28;19924;-79
2022/09/23 17:53:37;;;;;;;;;;;16.50;99.90;;;;;;8423773;27;19926;-79
2022/09/23 17:57:39;;;;;;;;;;;16.40;99.90;;;;;;8397037;28;20456;-79
2022/09/23 18:01:40;;;;;;;;;;;16.40;99.90;;;;;;8393162;28;19942;-80
2022/09/23 18:05:42;;;;;;;;;;;16.40;99.90;;;;;;8396337;28;19924;-80
2022/09/23 18:09:43;;;;;;;;;;;16.40;99.90;;;;;;8397635;28;19920;-79
2022/09/23 18:13:47;;;;;;;;;;;16.40;99.90;;;;;;8396982;28;19979;-79
2022/09/23 18:17:48;;;;;;;;;;;16.40;99.90;;;;;;8395505;28;19921;-79
2022/09/23 18:21:52;;;;;;;;;;;16.30;99.90;;;;;;8393112;28;19944;-80
2022/09/23 18:25:54;;;;;;;;;;;16.40;99.90;;;;;;8430227;27;19924;-79
2022/09/23 18:29:55;;;;;;;;;;;16.30;99.90;;;;;;8393920;28;19924;-79
2022/09/23 18:33:57;;;;;;;;;;;16.30;99.90;;;;;;8399502;28;20019;-80
2022/09/23 18:37:59;;;;;;;;;;;16.30;99.90;;;;;;8397431;28;19928;-79
2022/09/23 18:42:01;;;;;;;;;;;16.30;99.90;;;;;;8397471;28;19942;-79
2022/09/23 18:46:04;;;;;;;;;;;16.30;99.90;;;;;;8425797;27;19945;-80
2022/09/23 18:54:29;;;;;;;;;;;16.30;99.90;;;;;;8399253;28;19930;-79
2022/09/23 18:58:31;;;;;;;;;;;16.30;99.90;;;;;;8400175;28;19950;-79
2022/09/23 19:02:32;;;;;;;;;;;16.20;99.90;;;;;;8398165;28;19920;-79
2022/09/23 19:06:34;;;;;;;;;;;16.20;99.90;;;;;;8399662;28;20295;-79
2022/09/23 19:10:36;;;;;;;;;;;16.20;99.90;;;;;;8397936;28;19929;-79
2022/09/23 19:14:37;;;;;;;;;;;16.10;99.90;;;;;;8392360;28;19934;-79
2022/09/23 19:18:40;;;;;;;;;;;16.10;99.90;;;;;;8404307;28;19934;-79
2022/09/23 19:22:44;;;;;;;;;;;16.10;99.90;;;;;;8399326;28;20260;-79
2022/09/23 19:26:46;;;;;;;;;;;16.10;99.90;;;;;;8398303;28;19926;-79
2022/09/23 19:30:47;;;;;;;;;;;16.10;99.90;;;;;;8395139;28;19932;-80
2022/09/23 19:34:49;;;;;;;;;;;16.10;99.90;;;;;;8399705;28;20353;-79
2022/09/23 19:38:51;;;;;;;;;;;16.10;99.90;;;;;;8396447;28;20298;-79
2022/09/23 19:42:53;;;;;;;;;;;16.10;99.90;;;;;;8430646;27;20006;-79
2022/09/23 19:46:55;;;;;;;;;;;16.10;99.90;;;;;;8399883;28;20015;-80
2022/09/23 19:50:57;;;;;;;;;;;16.00;99.90;;;;;;8396892;28;19946;-79
2022/09/23 19:54:59;;;;;;;;;;;16.00;99.90;;;;;;8397932;28;19928;-79
2022/09/23 19:59:03;;;;;;;;;;;16.00;99.90;;;;;;8399033;28;19924;-79
2022/09/23 20:03:05;;;;;;;;;;;16.00;99.90;;;;;;8396440;28;19924;-79
2022/09/23 20:07:07;;;;;;;;;;;16.00;99.90;;;;;;8394797;28;19998;-79
2022/09/23 20:11:11;;;;;;;;;;;16.00;99.90;;;;;;8404161;28;20382;-79
2022/09/23 20:15:12;;;;;;;;;;;16.00;99.90;;;;;;8391580;28;19930;-79
2022/09/23 20:19:14;;;;;;;;;;;15.90;99.90;;;;;;8401181;28;19920;-79
2022/09/23 20:28:20;;;;;;;;;;;15.90;99.90;;;;;;8394261;28;20406;-80
2022/09/23 20:32:24;;;;;;;;;;;15.90;99.90;;;;;;8399889;28;19935;-79
2022/09/23 20:36:26;;;;;;;;;;;15.80;99.90;;;;;;8395346;28;20006;-79
2022/09/23 20:40:27;;;;;;;;;;;15.80;99.90;;;;;;8427575;27;20320;-79
2022/09/23 20:44:29;;;;;;;;;;;15.80;99.90;;;;;;8391808;28;19928;-79
2022/09/23 20:48:31;;;;;;;;;;;15.80;99.90;;;;;;8392389;28;19928;-79
2022/09/23 20:52:35;;;;;;;;;;;15.80;99.90;;;;;;8392962;28;20150;-79
2022/09/23 20:56:36;;;;;;;;;;;15.70;99.90;;;;;;8404486;28;19920;-80
2022/09/23 21:00:38;;;;;;;;;;;15.70;99.90;;;;;;8398198;28;19926;-79
2022/09/23 21:04:39;;;;;;;;;;;15.70;99.90;;;;;;8412666;28;19931;-79
2022/09/23 21:08:43;;;;;;;;;;;15.70;99.90;;;;;;8444993;28;19920;-79
2022/09/23 21:12:48;;;;;;;;;;;15.70;99.90;;;;;;8449855;28;19971;-79
2022/09/23 21:16:51;;;;;;;;;;;15.70;99.90;;;;;;8421207;28;19926;-80
2022/09/23 21:20:54;;;;;;;;;;;15.70;99.90;;;;;;8428377;27;19924;-80
2022/09/23 21:24:55;;;;;;;;;;;15.60;99.90;;;;;;8398796;28;20028;-80
2022/09/23 21:29:17;;;;;;;;;;;15.70;99.90;;;;;;8399056;28;19979;-78
2022/09/23 21:33:18;;;;;;;;;;;15.60;99.90;;;;;;8394796;28;19926;-80
2022/09/23 21:37:21;;;;;;;;;;;15.60;99.90;;;;;;8395464;28;19927;-79
2022/09/23 21:41:23;;;;;;;;;;;15.60;99.90;;;;;;8393019;28;20648;-79
2022/09/23 21:45:25;;;;;;;;;;;15.60;99.90;;;;;;8411211;28;19930;-79
2022/09/23 21:49:27;;;;;;;;;;;15.50;99.90;;;;;;8394195;28;19953;-79
2022/09/23 21:53:29;;;;;;;;;;;15.50;99.90;;;;;;8406040;28;19962;-79
2022/09/23 21:57:31;;;;;;;;;;;15.50;99.90;;;;;;8388464;28;20326;-79
2022/09/23 22:01:37;;;;;;;;;;;15.50;99.90;;;;;;8396896;28;19924;-79
2022/09/23 22:05:42;;;;;;;;;;;15.40;99.90;;;;;;8395198;28;19919;-79
2022/09/23 22:09:45;;;;;;;;;;;15.40;99.90;;;;;;8405328;28;20298;-79
2022/09/23 22:13:47;;;;;;;;;;;15.40;99.90;;;;;;8428145;27;19930;-79
2022/09/23 22:17:49;;;;;;;;;;;15.30;99.90;;;;;;8416883;28;19926;-79
2022/09/23 22:21:52;;;;;;;;;;;15.40;99.90;;;;;;8424651;28;19946;-79
2022/09/23 22:25:54;;;;;;;;;;;15.40;99.90;;;;;;8397816;28;19926;-78
2022/09/23 22:34:21;;;;;;;;;;;15.30;99.90;;;;;;8398418;28;19929;-79
2022/09/23 22:38:43;;;;;;;;;;;15.30;99.90;;;;;;8404404;28;20277;-79
2022/09/23 22:42:45;;;;;;;;;;;15.30;99.90;;;;;;8400500;28;19923;-79
2022/09/23 22:46:47;;;;;;;;;;;15.30;99.90;;;;;;8411262;28;19934;-79
2022/09/23 22:50:48;;;;;;;;;;;15.20;99.90;;;;;;8407752;28;19942;-78
2022/09/23 22:54:50;;;;;;;;;;;15.20;99.90;;;;;;8419442;28;19942;-79
2022/09/23 22:58:54;;;;;;;;;;;15.20;99.90;;;;;;8400187;28;19935;-79
2022/09/23 23:02:57;;;;;;;;;;;15.20;99.90;;;;;;8407614;28;19931;-79
2022/09/23 23:06:58;;;;;;;;;;;15.20;99.90;;;;;;8398130;28;19920;-80
2022/09/23 23:11:04;;;;;;;;;;;15.20;99.90;;;;;;8405787;28;19928;-79
2022/09/23 23:15:08;;;;;;;;;;;15.10;99.90;;;;;;8401134;28;19927;-79
2022/09/23 23:19:12;;;;;;;;;;;15.10;99.90;;;;;;8433188;28;19923;-80
2022/09/23 23:23:14;;;;;;;;;;;15.10;99.90;;;;;;8419242;28;19930;-79
2022/09/23 23:27:15;;;;;;;;;;;15.10;99.90;;;;;;8417883;28;19926;-79
2022/09/23 23:31:18;;;;;;;;;;;15.00;99.90;;;;;;8402466;28;19938;-79
2022/09/23 23:35:20;;;;;;;;;;;15.00;99.90;;;;;;8399172;28;19924;-79
2022/09/23 23:39:25;;;;;;;;;;;15.00;99.90;;;;;;8400237;28;19924;-79
2022/09/23 23:43:26;;;;;;;;;;;15.00;99.90;;;;;;8403201;28;19920;-79
2022/09/23 23:47:28;;;;;;;;;;;15.00;99.90;;;;;;8397148;28;19935;-79
2022/09/23 23:51:30;;;;;;;;;;;15.00;99.90;;;;;;8404116;28;19924;-79
2022/09/23 23:55:35;;;;;;;;;;;15.00;99.90;;;;;;8400502;28;19920;-79
2022/09/23 23:59:37;;;;;;;;;;;15.00;99.90;;;;;;8396980;28;19930;-80
